North Otis, Massachusetts
Current Conditions -  °F | °C
As of 9:54 AM on Friday 19 Dec 2014 (Local Time) from KPSF Reporting Station
Overcast Overcast  
Wind Chill: 14°   Ceiling: 2000
Heat Index: 26°   Visibility: 10mi
Dew Point: 20°   Wind: 15mph
Humidity: 78%   Direction: 280°W
Pressure: 29.97"   Gusts: 21mph
Location:  42.2038°N, 73.0917°W
Report Text: KPSF 191454Z AUTO 28013G18KT 10SM BKN020 OVC040 M03/M07 A2997 RMK AO2 SLP160 T10331067 51015
Loading
Personal Weather Stations






























Interactive Weather Map New forecast layout! Learn more

10-Day Weather Forecast

Advertisements
Track Severe Weather on mobile